Diane H — WUR7250 — position and weather

sailwx.info

Track history (hours):
 
Tides and Currents Weather Stations Pressure Air Temp Water Temp Dewpoint Dewpoint Depression Visibility Wind Speed Wind Dir Waves Ship Positions

Diane H

Owner: BOYER TOWING INC, KETCHIKAN, AK. More information available from US FCC via Universal Licensing System and Coast Guard Vessel Documentation Center.

Last reported at 2016-May-01 11:34 UTC. Time now 2016-May-01 11:47 UTC.
Position N 47°37' W 122°24'.

Type: Towing. MMSI: 366673090.

Date/timePositionNaut miles runAvg speedWind from/ knotsBaromVisibWave heightAir tempDewpointWater temp
2016-May-01 11:34N 47°37' W 122°24'3 3.0
2016-May-01 10:33N 47°34' W 122°21'3 2.5
2016-May-01 09:33N 47°32' W 122°19'4 3.5
2016-May-01 08:31N 47°35' W 122°22'4 3.5
2016-May-01 07:29N 47°32' W 122°19'  
2016-Apr-28 21:28N 47°32' W 122°20'3 3.4
2016-Apr-28 20:33N 47°35' W 122°22'5 4.6
2016-Apr-28 19:33N 47°39' W 122°26'2 1.9
2016-Apr-28 18:32N 47°40' W 122°24'3 2.7
2016-Apr-28 17:34N 47°39' W 122°20'2 2.3
2016-Apr-28 16:33N 47°39' W 122°17'3 2.9
2016-Apr-28 15:33N 47°39' W 122°21'3 3.1
2016-Apr-28 14:33N 47°39' W 122°26'7 0.5
2016-Apr-28 01:33N 47°33' W 122°20'8 8.2
2016-Apr-28 00:34N 47°41' W 122°25'1 1.2
2016-Apr-27 23:32N 47°40' W 122°23'0 0.0
2016-Apr-27 22:32N 47°40' W 122°23'0 0.5
2016-Apr-27 21:33N 47°40' W 122°23'4 3.5
2016-Apr-27 20:33N 47°39' W 122°18'1 1.3
2016-Apr-27 19:33N 47°39' W 122°20'3 2.9
2016-Apr-27 18:31N 47°40' W 122°24'0 0.3
2016-Apr-27 17:31N 47°40' W 122°24'3 2.7
2016-Apr-27 16:33N 47°38' W 122°25'6 6.1
2016-Apr-27 15:32N 47°32' W 122°20'  
Track history (hours):
 
Tides and Currents Weather Stations Pressure Air Temp Water Temp Dewpoint Dewpoint Depression Visibility Wind Speed Wind Dir Waves Ship Positions

Diane H

Owner: BOYER TOWING INC, KETCHIKAN, AK. More information available from US FCC via Universal Licensing System and Coast Guard Vessel Documentation Center.

Last reported at 2016-May-01 11:34 UTC. Time now 2016-May-01 11:47 UTC.
Position N 47°37' W 122°24'.

Type: Towing. MMSI: 366673090.

Date/timePositionNaut miles runAvg speedWind from/ knotsBaromVisibWave heightAir tempDewpointWater temp
2016-May-01 11:34N 47°37' W 122°24'3 3.0
2016-May-01 10:33N 47°34' W 122°21'3 2.5
2016-May-01 09:33N 47°32' W 122°19'4 3.5
2016-May-01 08:31N 47°35' W 122°22'4 3.5
2016-May-01 07:29N 47°32' W 122°19'  
2016-Apr-28 21:28N 47°32' W 122°20'3 3.4
2016-Apr-28 20:33N 47°35' W 122°22'5 4.6
2016-Apr-28 19:33N 47°39' W 122°26'2 1.9
2016-Apr-28 18:32N 47°40' W 122°24'3 2.7
2016-Apr-28 17:34N 47°39' W 122°20'2 2.3
2016-Apr-28 16:33N 47°39' W 122°17'3 2.9
2016-Apr-28 15:33N 47°39' W 122°21'3 3.1
2016-Apr-28 14:33N 47°39' W 122°26'7 0.5
2016-Apr-28 01:33N 47°33' W 122°20'8 8.2
2016-Apr-28 00:34N 47°41' W 122°25'1 1.2
2016-Apr-27 23:32N 47°40' W 122°23'0 0.0
2016-Apr-27 22:32N 47°40' W 122°23'0 0.5
2016-Apr-27 21:33N 47°40' W 122°23'4 3.5
2016-Apr-27 20:33N 47°39' W 122°18'1 1.3
2016-Apr-27 19:33N 47°39' W 122°20'3 2.9
2016-Apr-27 18:31N 47°40' W 122°24'0 0.3
2016-Apr-27 17:31N 47°40' W 122°24'3 2.7
2016-Apr-27 16:33N 47°38' W 122°25'6 6.1
2016-Apr-27 15:32N 47°32' W 122°20'  

Dump ship's entire track history